Time;durP1;ratioP1;P1;durP2;ratioP2;P2;SDS_P1;SDS_P2;PMS_P1;PMS_P2;Temp;Humidity;BMP_temperature;BMP_pressure;BME280_temperature;BME280_humidity;BME280_pressure;Samples;Min_cycle;Max_cycle;Signal;HPM_P1;HPM_P2
2023/04/18 00:00:29;;;;;;;22.45;20.15;;;;;;;6.75;100.00;100781.56;10537039;28;20099;-71
2023/04/18 00:05:31;;;;;;;22.30;20.10;;;;;;;6.80;100.00;100778.91;10535488;28;20055;-71
2023/04/18 00:10:32;;;;;;;27.20;23.13;;;;;;;6.76;100.00;100774.56;10535936;28;20361;-71
2023/04/18 00:15:34;;;;;;;29.58;23.40;;;;;;;6.73;100.00;100777.19;10535034;28;20047;-71
2023/04/18 00:20:37;;;;;;;30.27;24.40;;;;;;;6.79;100.00;100780.66;10535589;28;20171;-71
2023/04/18 00:25:39;;;;;;;30.83;25.13;;;;;;;6.86;100.00;100772.78;10534253;28;20135;-72
2023/04/18 00:30:41;;;;;;;30.13;26.83;;;;;;;6.93;100.00;100774.50;10534537;28;20054;-72
2023/04/18 00:35:43;;;;;;;32.58;27.38;;;;;;;6.93;100.00;100766.66;10535821;28;20040;-71
2023/04/18 00:40:45;;;;;;;34.33;28.15;;;;;;;7.00;100.00;100766.63;10534335;28;20119;-72
2023/04/18 00:45:46;;;;;;;30.67;27.73;;;;;;;7.16;100.00;100769.16;10516201;28;20220;-71
2023/04/18 00:50:48;;;;;;;31.23;28.08;;;;;;;7.18;100.00;100765.66;10515510;28;20044;-72
2023/04/18 00:55:50;;;;;;;35.30;31.30;;;;;;;7.25;100.00;100762.09;10515120;28;20066;-71
2023/04/18 01:00:53;;;;;;;32.67;29.42;;;;;;;7.37;100.00;100760.31;10514996;28;20067;-71
2023/04/18 01:05:56;;;;;;;32.50;29.42;;;;;;;7.38;100.00;100757.66;10532248;28;20051;-71
2023/04/18 01:10:58;;;;;;;34.25;30.55;;;;;;;7.38;100.00;100760.28;10513287;28;20048;-71
2023/04/18 01:16:00;;;;;;;33.72;30.23;;;;;;;7.50;100.00;100754.09;10531640;28;20036;-72
2023/04/18 01:21:04;;;;;;;34.67;31.20;;;;;;;7.58;100.00;100763.63;10532089;28;20104;-72
2023/04/18 01:26:06;;;;;;;36.20;32.83;;;;;;;7.61;100.00;100761.84;10513446;28;20051;-71
2023/04/18 01:31:08;;;;;;;34.28;31.17;;;;;;;7.58;100.00;100760.16;10531486;28;20135;-71
2023/04/18 01:36:10;;;;;;;35.72;32.33;;;;;;;7.61;100.00;100757.47;10531526;28;20036;-71
2023/04/18 01:41:12;;;;;;;36.72;33.50;;;;;;;7.62;100.00;100755.75;10513779;28;20048;-71
2023/04/18 01:46:16;;;;;;;37.47;34.17;;;;;;;7.44;100.00;100751.53;10511766;28;20127;-71
2023/04/18 01:51:17;;;;;;;39.30;35.50;;;;;;;7.37;100.00;100755.06;10513449;28;20043;-72
2023/04/18 01:56:20;;;;;;;39.38;35.15;;;;;;;7.52;100.00;100761.03;10531330;28;20042;-72
2023/04/18 02:01:21;;;;;;;39.88;35.80;;;;;;;7.49;100.00;100755.84;10513515;28;20123;-71
2023/04/18 02:06:23;;;;;;;46.30;38.03;;;;;;;7.36;100.00;100761.19;10513120;28;20547;-71
2023/04/18 02:11:25;;;;;;;39.25;35.08;;;;;;;7.39;100.00;100763.75;10530752;28;20047;-71
2023/04/18 02:16:27;;;;;;;43.22;37.53;;;;;;;7.37;100.00;100755.94;10512606;28;20117;-71
2023/04/18 02:21:29;;;;;;;40.92;36.47;;;;;;;7.40;100.00;100753.31;10531532;28;20506;-72
2023/04/18 02:26:31;;;;;;;38.22;34.17;;;;;;;7.42;100.00;100743.69;10531465;28;20040;-72
2023/04/18 02:31:33;;;;;;;38.25;34.33;;;;;;;7.41;100.00;100759.41;10531503;28;20540;-72
2023/04/18 02:36:34;;;;;;;38.58;34.53;;;;;;;7.47;100.00;100765.44;10531225;28;20040;-72
2023/04/18 02:41:38;;;;;;;38.92;35.20;;;;;;;7.38;100.00;100760.28;10512334;28;20132;-71
2023/04/18 02:46:39;;;;;;;39.33;35.22;;;;;;;7.28;100.00;100756.00;10530291;28;20123;-72
2023/04/18 02:51:45;;;;;;;38.20;34.47;;;;;;;7.40;100.00;100757.66;10496417;28;20043;-71
2023/04/18 02:56:48;;;;;;;42.75;35.80;;;;;;;7.43;100.00;100748.03;10515323;28;20110;-71
2023/04/18 03:01:56;;;;;;;38.75;34.80;;;;;;;7.33;100.00;100762.06;10503400;28;20409;-71
2023/04/18 03:06:58;;;;;;;36.55;33.30;;;;;;;7.47;100.00;100762.81;10537921;28;20032;-72
2023/04/18 03:12:02;;;;;;;39.70;35.35;;;;;;;7.07;100.00;100770.94;10519444;28;20147;-72
2023/04/18 03:17:06;;;;;;;34.85;31.63;;;;;;;7.10;100.00;100762.22;10502813;28;20473;-71
2023/04/18 03:22:15;;;;;;;33.40;30.33;;;;;;;7.17;100.00;100763.94;10519704;28;20101;-71
2023/04/18 03:27:24;;;;;;;32.25;29.33;;;;;;;7.24;100.00;100775.19;10520062;28;20052;-73
2023/04/18 03:32:26;;;;;;;33.70;30.70;;;;;;;7.05;100.00;100770.09;10520171;28;20048;-72
2023/04/18 03:37:28;;;;;;;35.65;31.83;;;;;;;7.15;100.00;100770.03;10537678;28;20358;-72
2023/04/18 03:42:31;;;;;;;36.53;33.15;;;;;;;7.03;100.00;100776.19;10519548;28;20472;-72
2023/04/18 03:47:33;;;;;;;36.60;32.90;;;;;;;6.91;100.00;100779.75;10519526;28;20063;-72
2023/04/18 03:52:35;;;;;;;49.13;38.05;;;;;;;6.72;100.00;100783.31;10538589;28;20084;-72
2023/04/18 03:57:38;;;;;;;46.53;36.35;;;;;;;6.67;100.00;100772.00;10519292;28;20052;-73
2023/04/18 04:02:46;;;;;;;50.28;38.17;;;;;;;6.73;100.00;100787.66;10519156;28;20126;-72
2023/04/18 04:07:53;;;;;;;49.80;35.75;;;;;;;6.82;100.00;100782.41;10504654;28;20105;-72
2023/04/18 04:12:56;;;;;;;49.65;37.25;;;;;;;6.79;100.00;100790.25;10504232;28;20523;-72
2023/04/18 04:17:58;;;;;;;54.17;39.05;;;;;;;6.50;100.00;100800.78;10517944;28;20071;-72
2023/04/18 04:23:02;;;;;;;53.20;37.00;;;;;;;6.50;100.00;100793.81;10517798;28;20370;-73
2023/04/18 04:28:07;;;;;;;60.22;38.97;;;;;;;6.46;100.00;100799.06;10518519;28;20458;-71
2023/04/18 04:33:23;;;;;;;50.90;37.75;;;;;;;6.31;100.00;100800.84;10517581;28;20052;-72
2023/04/18 04:38:29;;;;;;;50.65;35.90;;;;;;;6.49;100.00;100799.06;10518713;28;20056;-72
2023/04/18 04:43:32;;;;;;;54.25;35.13;;;;;;;6.49;100.00;100815.59;10517641;28;20063;-73
2023/04/18 04:48:34;;;;;;;48.00;34.13;;;;;;;6.54;100.00;100819.06;10516787;28;20124;-72
2023/04/18 04:53:37;;;;;;;41.80;35.47;;;;;;;6.53;100.00;100819.94;10516689;28;20165;-72
2023/04/18 04:58:41;;;;;;;47.85;35.38;;;;;;;6.49;100.00;100823.44;10516486;28;20072;-72
2023/04/18 05:03:48;;;;;;;43.47;34.35;;;;;;;6.55;100.00;100833.88;10516349;28;20065;-72
2023/04/18 05:08:50;;;;;;;43.03;33.65;;;;;;;6.48;100.00;100833.91;10535262;28;20123;-72
2023/04/18 05:13:52;;;;;;;47.95;33.90;;;;;;;6.35;100.00;100834.78;10535241;28;20044;-71
2023/04/18 05:18:54;;;;;;;43.97;34.15;;;;;;;6.35;100.00;100833.03;10533626;28;20040;-72
2023/04/18 05:23:55;;;;;;;53.58;36.13;;;;;;;6.25;100.00;100837.41;10515186;28;20120;-72
2023/04/18 05:28:57;;;;;;;44.65;34.22;;;;;;;6.33;100.00;100834.81;10535075;28;20036;-73
2023/04/18 05:33:59;;;;;;;37.95;31.92;;;;;;;6.42;100.00;100833.88;10511461;22;20056;-74
2023/04/18 05:39:01;;;;;;;36.63;30.88;;;;;;;6.39;100.00;100832.16;10492750;28;20040;-73
2023/04/18 05:44:03;;;;;;;36.13;29.05;;;;;;;6.37;100.00;100828.69;10492996;28;20140;-73
2023/04/18 05:49:06;;;;;;;39.20;31.23;;;;;;;6.20;100.00;100848.75;10458940;28;20505;-73
2023/04/18 05:54:08;;;;;;;30.85;27.70;;;;;;;6.35;100.00;100846.09;10473825;28;20078;-73
2023/04/18 05:59:10;;;;;;;29.02;26.08;;;;;;;6.32;100.00;100853.94;10474309;28;20051;-73
2023/04/18 06:04:12;;;;;;;26.42;24.08;;;;;;;6.26;100.00;100849.59;10492064;28;20045;-73
2023/04/18 06:09:14;;;;;;;29.10;25.95;;;;;;;6.07;100.00;100850.50;10457942;28;20048;-73
2023/04/18 06:14:16;;;;;;;30.63;25.25;;;;;;;6.00;100.00;100864.41;10492354;28;20419;-74
2023/04/18 06:19:18;;;;;;;38.78;26.95;;;;;;;6.11;100.00;100856.56;10456925;28;20368;-73
2023/04/18 06:24:20;;;;;;;42.03;29.63;;;;;;;6.05;100.00;100857.44;10474221;28;20084;-73
2023/04/18 06:29:22;;;;;;;48.78;31.85;;;;;;;5.95;100.00;100869.63;10473138;28;20146;-73
2023/04/18 06:34:24;;;;;;;48.33;31.13;;;;;;;6.02;100.00;100878.31;10480591;28;20148;-72
2023/04/18 06:39:26;;;;;;;46.92;31.05;;;;;;;5.95;100.00;100884.41;10499605;28;20485;-72
2023/04/18 06:44:28;;;;;;;45.03;31.65;;;;;;;6.01;100.00;100890.50;10499069;28;20040;-73
2023/04/18 06:49:30;;;;;;;42.70;31.55;;;;;;;6.05;100.00;100884.41;10481618;28;20044;-73
2023/04/18 06:54:32;;;;;;;46.63;32.88;;;;;;;6.03;100.00;100883.53;10499832;28;20054;-72
2023/04/18 06:59:34;;;;;;;55.95;32.85;;;;;;;6.24;100.00;100872.25;10481009;28;20062;-72
2023/04/18 07:04:36;;;;;;;39.58;31.58;;;;;;;6.19;100.00;100873.97;10499408;28;20048;-73
2023/04/18 07:09:38;;;;;;;38.10;28.55;;;;;;;6.45;100.00;100875.69;10480409;28;20147;-73
2023/04/18 07:14:40;;;;;;;36.50;28.42;;;;;;;6.49;100.00;100869.59;10463352;28;20064;-73
2023/04/18 07:19:43;;;;;;;35.42;28.13;;;;;;;6.44;100.00;100877.44;10498307;28;20063;-73
2023/04/18 07:24:45;;;;;;;36.83;29.73;;;;;;;6.32;100.00;100877.44;10498092;28;20120;-73
2023/04/18 07:29:46;;;;;;;39.58;29.92;;;;;;;6.30;100.00;100880.06;10480022;28;20519;-73
2023/04/18 07:34:50;;;;;;;36.13;29.33;;;;;;;6.34;100.00;100893.97;10479655;28;20045;-73
2023/04/18 07:39:52;;;;;;;36.47;27.58;;;;;;;6.30;100.00;100897.47;10497258;28;20036;-73
2023/04/18 07:44:59;;;;;;;33.33;29.40;;;;;;;6.14;100.00;100891.38;10478651;28;20063;-74
2023/04/18 07:50:02;;;;;;;45.25;30.10;;;;;;;6.25;100.00;100894.00;10496882;28;20430;-73
2023/04/18 07:55:04;;;;;;;78.88;33.67;;;;;;;6.37;100.00;100893.09;10478800;28;20126;-73
2023/04/18 08:00:06;;;;;;;38.13;29.00;;;;;;;6.53;100.00;100898.31;10496390;28;20098;-72
2023/04/18 08:05:13;;;;;;;;;;;;;;;6.38;100.00;100898.34;10496943;28;20134;-73
2023/04/18 08:10:15;;;;;;;31.23;26.95;;;;;;;6.61;100.00;100897.44;10496079;28;19920;-73
2023/04/18 08:15:17;;;;;;;37.22;28.38;;;;;;;6.62;100.00;100894.81;10477631;28;20139;-73
2023/04/18 08:20:18;;;;;;;33.17;28.63;;;;;;;6.52;100.00;100893.97;10495962;28;20092;-73
2023/04/18 08:25:20;;;;;;;30.00;26.65;;;;;;;6.65;100.00;100888.72;10495277;28;20036;-73
2023/04/18 08:30:22;;;;;;;28.20;24.83;;;;;;;6.91;100.00;100894.75;10495687;28;20064;-73
2023/04/18 08:35:24;;;;;;;29.13;25.98;;;;;;;6.91;100.00;100899.97;10476957;28;20058;-73
2023/04/18 08:40:29;;;;;;;30.48;25.58;;;;;;;6.91;100.00;100897.38;10495873;28;20096;-74
2023/04/18 08:45:32;;;;;;;27.90;25.00;;;;;;;6.97;100.00;100894.72;10494385;28;20033;-73
2023/04/18 08:50:34;;;;;;;27.98;25.15;;;;;;;7.07;100.00;100896.41;10494213;28;20116;-74
2023/04/18 08:55:36;;;;;;;24.85;22.23;;;;;;;7.07;100.00;100908.63;10493805;28;20098;-73
2023/04/18 09:00:38;;;;;;;27.45;24.80;;;;;;;6.90;100.00;100906.06;10475845;28;20130;-74
2023/04/18 09:05:39;;;;;;;26.35;23.63;;;;;;;7.08;100.00;100908.63;10493486;28;20493;-74
2023/04/18 09:10:42;;;;;;;25.52;22.73;;;;;;;7.24;100.00;100909.44;10476164;28;20072;-74
2023/04/18 09:15:55;;;;;;;26.42;23.58;;;;;;;7.08;100.00;100906.03;10476440;28;20090;-74
2023/04/18 09:21:17;;;;;;;29.42;24.05;;;;;;;7.19;100.00;100905.97;10493860;28;20044;-75
2023/04/18 09:26:34;;;;;;;30.02;24.23;;;;;;;7.24;100.00;100906.81;10475477;28;20060;-73
2023/04/18 09:32:00;;;;;;;28.77;24.30;;;;;;;7.15;100.00;100906.00;10493395;28;20044;-73
2023/04/18 09:37:12;;;;;;;27.83;24.13;;;;;;;7.18;100.00;100911.22;10493863;28;20046;-73
2023/04/18 09:42:14;;;;;;;30.23;25.45;;;;;;;7.17;100.00;100902.50;10475139;28;20116;-73
2023/04/18 09:47:16;;;;;;;30.65;27.23;;;;;;;7.25;100.00;100910.28;10493485;28;20150;-73
2023/04/18 09:52:20;;;;;;;37.40;28.50;;;;;;;7.07;100.00;100908.63;10475530;28;20605;-73
2023/04/18 09:57:27;;;;;;;29.23;26.15;;;;;;;7.03;100.00;100909.50;10492852;28;20462;-74
2023/04/18 10:02:46;;;;;;;39.53;29.10;;;;;;;7.13;100.00;100913.84;10493096;28;20037;-73
2023/04/18 10:07:49;;;;;;;32.65;29.08;;;;;;;7.21;100.00;100905.94;10475221;28;20040;-73
2023/04/18 10:12:59;;;;;;;37.00;30.75;;;;;;;7.10;100.00;100907.75;10474879;28;20083;-73
2023/04/18 10:18:07;;;;;;;40.97;32.13;;;;;;;7.14;100.00;100905.13;10492778;28;20128;-73
2023/04/18 10:23:31;;;;;;;33.95;29.92;;;;;;;7.30;100.00;100905.91;10492109;28;20044;-73
2023/04/18 10:28:52;;;;;;;37.83;31.27;;;;;;;7.27;100.00;100912.03;10474804;28;20045;-73
2023/04/18 10:33:56;;;;;;;34.13;30.85;;;;;;;7.36;100.00;100905.03;10474625;28;20177;-73
2023/04/18 10:39:20;;;;;;;34.37;30.30;;;;;;;7.31;100.00;100899.84;10475456;28;20075;-73
2023/04/18 10:44:22;;;;;;;33.28;29.83;;;;;;;7.34;100.00;100907.63;10474566;28;20307;-75
2023/04/18 10:49:26;;;;;;;37.80;30.83;;;;;;;7.43;100.00;100907.59;10493139;28;20116;-74
2023/04/18 10:54:45;;;;;;;33.60;30.25;;;;;;;7.51;100.00;100903.19;10494113;28;20040;-73
2023/04/18 10:59:49;;;;;;;42.50;33.25;;;;;;;7.58;100.00;100896.19;10492902;28;20072;-74
2023/04/18 11:05:03;;;;;;;41.92;33.10;;;;;;;7.63;100.00;100901.41;10492573;28;20410;-75
2023/04/18 11:10:07;;;;;;;42.40;33.08;;;;;;;7.55;100.00;100899.69;10491884;28;20048;-75
2023/04/18 11:15:16;;;;;;;36.40;32.53;;;;;;;7.47;100.00;100905.84;10473175;28;20049;-74
2023/04/18 11:20:18;;;;;;;44.42;34.83;;;;;;;7.57;100.00;100903.19;10495801;28;20045;-73
2023/04/18 11:25:35;;;;;;;39.83;32.42;;;;;;;7.66;100.00;100904.88;10498860;28;20067;-75
2023/04/18 11:30:41;;;;;;;36.22;32.33;;;;;;;7.69;100.00;100910.06;10511598;22;20485;-72
2023/04/18 11:35:44;;;;;;;37.15;33.22;;;;;;;7.95;100.00;100898.56;10476916;28;20052;-71
2023/04/18 11:40:47;;;;;;;41.35;34.88;;;;;;;7.71;100.00;100902.22;10493663;28;20363;-71
2023/04/18 11:45:56;;;;;;;38.58;34.30;;;;;;;7.66;100.00;100911.81;10493939;28;20043;-72
2023/04/18 11:50:58;;;;;;;42.88;36.22;;;;;;;7.75;100.00;100910.06;10495275;28;20140;-72
2023/04/18 11:56:02;;;;;;;35.47;31.98;;;;;;;7.94;100.00;100908.16;10494862;28;20036;-72
2023/04/18 12:01:23;;;;;;;35.80;32.38;;;;;;;7.76;100.00;100908.31;10494372;28;20045;-73
2023/04/18 12:06:25;;;;;;;37.38;32.92;;;;;;;7.73;100.00;100908.31;10493747;28;20041;-73
2023/04/18 12:11:28;;;;;;;34.20;30.80;;;;;;;8.15;100.00;100916.75;10495327;28;20067;-72
2023/04/18 12:16:30;;;;;;;31.70;28.67;;;;;;;8.17;100.00;100909.75;10496583;28;20044;-73
2023/04/18 12:21:32;;;;;;;34.63;30.77;;;;;;;8.13;100.00;100913.28;10497068;28;20148;-72
2023/04/18 12:26:34;;;;;;;34.78;29.23;;;;;;;8.13;100.00;100913.28;10494234;28;20508;-72
2023/04/18 12:31:36;;;;;;;37.13;31.30;;;;;;;8.16;100.00;100913.25;10493624;28;20081;-72
2023/04/18 12:36:38;;;;;;;33.92;30.27;;;;;;;8.10;100.00;100914.16;10477996;28;20106;-73
2023/04/18 12:41:39;;;;;;;31.77;27.85;;;;;;;8.18;100.00;100909.72;10492959;28;20052;-72
2023/04/18 12:46:41;;;;;;;33.05;29.48;;;;;;;8.15;100.00;100915.00;10495292;28;20453;-72
2023/04/18 12:51:43;;;;;;;38.78;30.05;;;;;;;8.07;100.00;100908.97;10492016;28;20048;-72
2023/04/18 12:56:45;;;;;;;31.92;28.65;;;;;;;8.02;100.00;100906.38;10474972;28;20178;-72
2023/04/18 13:01:46;;;;;;;35.53;29.98;;;;;;;8.24;100.00;100908.84;10475093;28;20406;-73
2023/04/18 13:06:48;;;;;;;34.08;30.63;;;;;;;8.16;100.00;100910.63;10473404;28;20470;-72
2023/04/18 13:11:50;;;;;;;33.03;29.58;;;;;;;8.22;100.00;100910.56;10492226;28;20367;-72
2023/04/18 13:16:52;;;;;;;42.10;30.88;;;;;;;8.06;100.00;100904.59;10465421;28;20108;-71
2023/04/18 13:21:54;;;;;;;34.10;30.17;;;;;;;8.01;100.00;100901.13;10451678;28;20059;-72
2023/04/18 13:26:56;;;;;;;31.30;27.98;;;;;;;8.08;100.00;100897.59;10431703;28;20120;-72
2023/04/18 13:31:58;;;;;;;37.45;29.10;;;;;;;8.18;100.00;100903.63;10431917;28;20371;-73
2023/04/18 13:37:00;;;;;;;32.63;26.88;;;;;;;8.23;100.00;100900.06;10449298;28;20045;-73
2023/04/18 13:42:02;;;;;;;28.58;25.83;;;;;;;8.26;100.00;100909.66;10449992;28;20496;-72
2023/04/18 13:47:05;;;;;;;30.00;25.27;;;;;;;8.34;100.00;100911.34;10448959;28;20438;-73
2023/04/18 13:52:07;;;;;;;35.15;26.00;;;;;;;8.38;100.00;100903.50;10480472;28;20127;-72
2023/04/18 13:57:12;;;;;;;28.33;25.80;;;;;;;8.24;100.00;100907.06;10489491;28;20116;-73
2023/04/18 14:02:14;;;;;;;26.20;23.92;;;;;;;8.36;100.00;100903.47;10472577;28;20109;-73
2023/04/18 14:07:16;;;;;;;27.42;24.35;;;;;;;8.41;100.00;100899.13;10489459;28;20128;-73
2023/04/18 14:12:18;;;;;;;26.23;24.10;;;;;;;8.41;100.00;100901.72;10488890;28;20111;-73
2023/04/18 14:17:19;;;;;;;25.70;23.48;;;;;;;8.34;100.00;100898.25;10489963;28;20128;-72
2023/04/18 14:22:21;;;;;;;23.33;21.63;;;;;;;8.60;100.00;100891.94;10487362;28;20059;-73
2023/04/18 14:27:24;;;;;;;23.52;21.67;;;;;;;8.68;100.00;100902.34;10491983;28;20072;-73
2023/04/18 14:32:26;;;;;;;25.27;23.02;;;;;;;8.61;100.00;100898.91;10489447;28;20382;-72
2023/04/18 14:37:28;;;;;;;24.58;22.55;;;;;;;8.71;100.00;100897.91;10488789;28;20047;-72
2023/04/18 14:42:30;;;;;;;22.00;20.40;;;;;;;8.86;100.00;100899.53;10488270;28;20063;-72
2023/04/18 14:47:33;;;;;;;23.20;21.38;;;;;;;8.61;100.00;100892.81;10491100;28;20384;-72
2023/04/18 14:52:35;;;;;;;23.58;21.23;;;;;;;8.65;100.00;100878.78;10474394;28;20142;-72
2023/04/18 14:57:38;;;;;;;21.00;19.48;;;;;;;8.69;100.00;100886.59;10497873;28;20042;-72
2023/04/18 15:02:40;;;;;;;22.00;19.95;;;;;;;8.73;100.00;100890.06;10496498;28;20166;-73
2023/04/18 15:07:43;;;;;;;20.10;18.50;;;;;;;8.88;100.00;100884.63;10498063;28;20045;-73
2023/04/18 15:12:45;;;;;;;19.58;17.98;;;;;;;8.80;100.00;100879.47;10477736;28;20052;-73
2023/04/18 15:17:47;;;;;;;18.75;17.35;;;;;;;8.81;100.00;100880.38;10478513;28;20119;-73
2023/04/18 15:22:49;;;;;;;19.40;18.00;;;;;;;8.80;100.00;100883.84;10479067;28;20114;-73
2023/04/18 15:27:51;;;;;;;20.77;19.30;;;;;;;8.72;100.00;100885.69;10477629;28;20046;-72
2023/04/18 15:32:54;;;;;;;20.60;19.00;;;;;;;8.70;100.00;100884.84;10496370;28;20040;-73
2023/04/18 15:37:56;;;;;;;23.55;21.75;;;;;;;8.82;100.00;100887.34;10477601;28;20085;-73
2023/04/18 15:42:59;;;;;;;25.17;22.58;;;;;;;8.83;100.00;100887.31;10468776;28;20111;-72
2023/04/18 15:48:01;;;;;;;25.60;23.25;;;;;;;8.86;100.00;100883.81;10454209;28;20482;-73
2023/04/18 15:53:03;;;;;;;26.08;23.60;;;;;;;8.92;100.00;100883.72;10455085;28;20148;-73
2023/04/18 15:58:05;;;;;;;29.40;25.52;;;;;;;8.78;100.00;100883.00;10452700;28;20036;-73
2023/04/18 16:03:09;;;;;;;25.88;23.63;;;;;;;8.68;100.00;100878.75;10485431;28;20488;-72
2023/04/18 16:08:11;;;;;;;26.02;23.30;;;;;;;8.70;100.00;100880.47;10475224;28;20045;-72
2023/04/18 16:13:12;;;;;;;26.38;23.80;;;;;;;8.78;100.00;100886.50;10494350;28;20064;-72
2023/04/18 16:18:14;;;;;;;26.88;24.55;;;;;;;8.57;100.00;100877.09;10494646;28;20052;-74
2023/04/18 16:23:16;;;;;;;27.45;24.70;;;;;;;8.71;100.00;100884.81;10474983;28;20082;-73
2023/04/18 16:28:18;;;;;;;32.65;25.67;;;;;;;8.93;100.00;100876.72;10493946;28;20449;-73
2023/04/18 16:33:23;;;;;;;26.50;23.95;;;;;;;8.75;100.00;100888.28;10493630;28;20047;-73
2023/04/18 16:38:26;;;;;;;26.30;24.25;;;;;;;9.00;100.00;100875.78;10494616;28;20051;-73
2023/04/18 16:43:29;;;;;;;28.85;25.95;;;;;;;8.84;100.00;100880.31;10492855;28;20072;-72
2023/04/18 16:48:31;;;;;;;27.13;24.85;;;;;;;8.73;100.00;100883.06;10492319;28;20121;-73
2023/04/18 16:53:33;;;;;;;26.50;24.45;;;;;;;8.67;100.00;100882.25;10492268;28;20465;-73
2023/04/18 16:58:35;;;;;;;30.40;26.88;;;;;;;8.60;100.00;100878.84;10494176;28;20078;-73
2023/04/18 17:03:36;;;;;;;30.85;27.92;;;;;;;8.52;100.00;100878.91;10491797;28;20049;-72
2023/04/18 17:08:38;;;;;;;32.22;29.17;;;;;;;8.40;100.00;100881.63;10491578;28;20036;-72
2023/04/18 17:13:40;;;;;;;32.83;29.35;;;;;;;8.40;100.00;100886.00;10491154;28;20060;-72
2023/04/18 17:18:42;;;;;;;29.85;27.20;;;;;;;8.47;100.00;100891.19;10488964;28;20052;-72
2023/04/18 17:23:44;;;;;;;30.13;27.42;;;;;;;8.69;100.00;100886.59;10492510;28;20108;-73
2023/04/18 17:28:46;;;;;;;30.20;27.40;;;;;;;8.53;100.00;100888.50;10490956;28;20123;-73
2023/04/18 17:33:50;;;;;;;27.58;24.70;;;;;;;8.56;100.00;100890.22;10504128;22;20120;-77
2023/04/18 17:38:52;;;;;;;28.33;25.55;;;;;;;8.51;100.00;100892.91;10476891;28;20064;-76
2023/04/18 17:43:54;;;;;;;26.00;23.48;;;;;;;8.50;100.00;100896.41;10494276;28;20048;-76
2023/04/18 17:48:56;;;;;;;29.17;26.15;;;;;;;8.49;100.00;100894.63;10494202;28;20040;-76
2023/04/18 17:53:57;;;;;;;25.65;23.65;;;;;;;8.51;100.00;100889.41;10476229;28;20469;-76
2023/04/18 17:58:59;;;;;;;25.33;23.23;;;;;;;8.58;100.00;100883.19;10494172;28;20043;-75
2023/04/18 18:04:01;;;;;;;25.20;23.27;;;;;;;8.48;100.00;100886.81;10492752;28;20411;-77
2023/04/18 18:09:04;;;;;;;27.40;25.23;;;;;;;8.41;100.00;100888.63;10491805;28;20053;-75
2023/04/18 18:14:06;;;;;;;28.67;25.98;;;;;;;8.49;100.00;100894.63;10474094;28;20084;-75
2023/04/18 18:19:08;;;;;;;30.27;25.20;;;;;;;8.46;100.00;100899.94;10473890;28;20103;-75
2023/04/18 18:24:10;;;;;;;37.08;32.63;;;;;;;8.63;100.00;100891.03;10457598;28;20151;-76
2023/04/18 18:29:12;;;;;;;27.42;24.80;;;;;;;8.99;100.00;100889.78;10479293;28;20081;-77
2023/04/18 18:34:15;;;;;;;27.95;25.17;;;;;;;8.99;100.00;100895.88;10500044;28;20067;-76
2023/04/18 18:39:17;;;;;;;26.00;23.77;;;;;;;8.84;100.00;100906.53;10482060;28;20037;-76
2023/04/18 18:44:20;;;;;;;26.30;23.92;;;;;;;8.87;100.00;100901.25;10481552;28;20060;-76
2023/04/18 18:49:21;;;;;;;28.17;25.35;;;;;;;8.62;100.00;100902.38;10481706;28;20376;-76
2023/04/18 18:54:24;;;;;;;27.90;25.60;;;;;;;8.56;100.00;100903.34;10499791;28;20489;-76
2023/04/18 18:59:26;;;;;;;26.90;24.33;;;;;;;8.72;100.00;100899.69;10481106;28;20121;-76
2023/04/18 19:04:28;;;;;;;25.50;23.45;;;;;;;9.21;100.00;100909.63;10500398;28;20051;-77
2023/04/18 19:09:30;;;;;;;26.13;23.50;;;;;;;9.19;100.00;100908.75;10481337;28;20041;-77
2023/04/18 19:14:32;;;;;;;26.42;23.70;;;;;;;9.14;100.00;100909.69;10480891;28;20049;-77
2023/04/18 19:19:34;;;;;;;23.83;21.67;;;;;;;9.14;100.00;100902.69;10498728;28;20056;-76
2023/04/18 19:24:36;;;;;;;24.60;21.98;;;;;;;9.10;100.00;100899.22;10497405;28;20473;-77
2023/04/18 19:29:38;;;;;;;25.55;23.17;;;;;;;9.00;100.00;100897.63;10479548;28;20115;-76
2023/04/18 19:34:40;;;;;;;23.40;21.63;;;;;;;9.01;100.00;100901.97;10478893;28;20488;-76
2023/04/18 19:39:41;;;;;;;24.02;22.00;;;;;;;9.10;100.00;100898.38;10495862;28;20037;-76
2023/04/18 19:44:43;;;;;;;26.02;21.48;;;;;;;9.28;100.00;100892.88;10496825;28;20045;-75
2023/04/18 19:49:45;;;;;;;23.25;20.95;;;;;;;9.04;100.00;100888.81;10479627;28;20433;-75
2023/04/18 19:54:46;;;;;;;22.38;20.33;;;;;;;8.99;100.00;100889.78;10496711;28;20458;-77
2023/04/18 19:59:48;;;;;;;22.92;21.02;;;;;;;9.10;100.00;100894.00;10497588;28;20052;-76
2023/04/18 20:04:50;;;;;;;22.80;20.80;;;;;;;8.94;100.00;100887.22;10478020;28;20055;-76
2023/04/18 20:09:52;;;;;;;22.63;20.67;;;;;;;9.12;100.00;100885.22;10496161;28;20041;-76
2023/04/18 20:14:54;;;;;;;23.00;21.20;;;;;;;9.06;100.00;100887.03;10495382;28;20199;-76
2023/04/18 20:19:58;;;;;;;21.05;19.55;;;;;;;9.18;100.00;100879.91;10477217;28;20033;-76
2023/04/18 20:25:00;;;;;;;19.10;17.73;;;;;;;8.97;100.00;100876.66;10497525;28;20066;-77
2023/04/18 20:30:02;;;;;;;24.05;21.83;;;;;;;8.86;100.00;100883.81;10496359;28;20037;-76
2023/04/18 20:35:04;;;;;;;24.45;22.35;;;;;;;8.79;100.00;100877.75;10497672;28;20131;-76
2023/04/18 20:40:09;;;;;;;25.35;23.25;;;;;;;8.76;100.00;100883.00;10479123;28;20049;-77
2023/04/18 20:45:12;;;;;;;23.88;21.63;;;;;;;8.79;100.00;100867.25;10497533;28;20044;-76
2023/04/18 20:50:16;;;;;;;22.63;20.40;;;;;;;8.99;100.00;100874.03;10495955;28;20098;-75
2023/04/18 20:55:18;;;;;;;21.13;19.63;;;;;;;8.98;100.00;100867.91;10495318;28;20490;-76
2023/04/18 21:00:20;;;;;;;24.60;22.50;;;;;;;8.78;100.00;100873.38;10494547;28;20047;-75
2023/04/18 21:05:22;;;;;;;26.40;24.27;;;;;;;8.64;100.00;100866.56;10496277;28;20040;-76
2023/04/18 21:10:25;;;;;;;24.73;22.58;;;;;;;8.56;100.00;100871.88;10476212;28;20048;-75
2023/04/18 21:15:26;;;;;;;26.40;23.58;;;;;;;8.71;100.00;100858.59;10476317;28;20055;-75
2023/04/18 21:20:28;;;;;;;25.92;23.67;;;;;;;8.59;100.00;100861.38;10494213;28;20052;-75
2023/04/18 21:25:30;;;;;;;26.45;24.05;;;;;;;8.55;100.00;100857.06;10495548;28;20041;-75
2023/04/18 21:30:31;;;;;;;25.55;23.35;;;;;;;8.70;100.00;100846.38;10494116;28;20097;-76
2023/04/18 21:35:33;;;;;;;23.40;21.45;;;;;;;8.61;100.00;100854.34;10494093;28;20056;-76
2023/04/18 21:40:36;;;;;;;26.73;24.15;;;;;;;8.51;100.00;100848.34;10493660;28;20060;-76
2023/04/18 21:45:38;;;;;;;24.10;22.20;;;;;;;8.56;100.00;100843.91;10476022;28;20067;-76
2023/04/18 21:50:41;;;;;;;22.67;21.08;;;;;;;8.66;100.00;100836.81;10494733;28;20048;-76
2023/04/18 21:55:43;;;;;;;24.42;22.23;;;;;;;8.85;100.00;100840.09;10476112;28;20055;-77
2023/04/18 22:00:45;;;;;;;23.48;21.42;;;;;;;8.65;100.00;100832.47;10475790;28;20043;-75
2023/04/18 22:05:47;;;;;;;22.63;20.83;;;;;;;8.62;100.00;100826.38;10492920;28;20052;-75
2023/04/18 22:10:49;;;;;;;23.05;21.23;;;;;;;8.76;100.00;100820.09;10493441;28;20055;-75
2023/04/18 22:15:51;;;;;;;23.00;21.08;;;;;;;8.79;100.00;100821.81;10474424;28;20051;-75
2023/04/18 22:20:53;;;;;;;22.98;20.98;;;;;;;8.63;100.00;100815.88;10492480;28;20044;-75
2023/04/18 22:25:55;;;;;;;21.98;20.17;;;;;;;8.56;100.00;100814.22;10491243;28;20064;-74
2023/04/18 22:30:57;;;;;;;21.15;19.58;;;;;;;8.72;100.00;100807.03;10473451;28;20057;-75
2023/04/18 22:35:59;;;;;;;23.30;21.35;;;;;;;8.61;100.00;100806.31;10492148;28;20036;-76
2023/04/18 22:41:01;;;;;;;22.10;20.35;;;;;;;8.67;100.00;100812.34;10473389;28;20123;-75